Disclaimer

Please do not use the information listed here in-flight or in-navigation, as they are not provided to us by the airports but are provided by volunteers, so they might be outdated.

Search


Regions


Airport information page

No radio frequency information is available.

Airport informations:
Latitude: 50° 38' 37.55" N
Longitude: 036° 35' 24.45" E
Elevation: 734 feet - 224 meters
Operating hours: 24 hour operations
Operating agency: Civil government, landing fees and diplomatic clearance may be required
Timezone: UTC+3(+4DT) - Last Sunday in March to last Sunday in October
Fuel: Jet A1, without icing nhibitor.

Runway information:
11/29 - 7546 x 138 feet< - >2300 x 42 meters
12/30 - 7930 x 220 feet< - >2417 x 67 meters

Recent METARs:
UUOB 180530Z 23003MPS CAVOK M05/M10 Q1026 R11/010060 NOSIG
UUOB 180600Z 24003MPS CAVOK M04/M10 Q1026 R29/010060 NOSIG
UUOB 180630Z 25004MPS CAVOK M03/M10 Q1026 R29/010060 NOSIG

Airport on the map: